Time;durP1;ratioP1;P1;durP2;ratioP2;P2;SDS_P1;SDS_P2;PMS_P1;PMS_P2;Temp;Humidity;BMP_temperature;BMP_pressure;BME280_temperature;BME280_humidity;BME280_pressure;Samples;Min_cycle;Max_cycle;Signal;HPM_P1;HPM_P2
2022/11/27 00:01:22;;;;;;;26.13;8.90;;;6.10;99.90;;;;;;5014316;28;20392;-73
2022/11/27 00:03:48;;;;;;;19.30;8.10;;;6.00;98.70;;;;;;5014666;28;20381;-73
2022/11/27 00:06:17;;;;;;;19.63;7.55;;;6.00;98.30;;;;;;5012717;28;20411;-73
2022/11/27 00:08:43;;;;;;;21.50;7.23;;;6.00;97.20;;;;;;5013417;28;20424;-73
2022/11/27 00:11:11;;;;;;;28.88;8.07;;;6.00;98.60;;;;;;5012555;28;21199;-71
2022/11/27 00:13:37;;;;;;;18.70;7.13;;;6.10;99.70;;;;;;5012721;28;20752;-73
2022/11/27 00:16:04;;;;;;;22.60;7.40;;;6.00;96.90;;;;;;5012456;28;20498;-73
2022/11/27 00:18:31;;;;;;;14.27;6.60;;;5.90;98.60;;;;;;5012970;28;20918;-72
2022/11/27 00:21:10;;;;;;;20.83;7.70;;;5.90;97.60;;;;;;5012410;28;20479;-73
2022/11/27 00:23:36;;;;;;;22.38;7.93;;;6.00;98.80;;;;;;5012744;28;20421;-74
2022/11/27 00:26:03;;;;;;;17.15;7.68;;;6.10;98.80;;;;;;5011110;28;20443;-73
2022/11/27 00:28:29;;;;;;;20.05;7.90;;;6.00;97.10;;;;;;5011522;28;20455;-75
2022/11/27 00:31:02;;;;;;;21.55;7.70;;;6.10;97.00;;;;;;5010953;28;20496;-72
2022/11/27 00:33:28;;;;;;;16.38;6.80;;;6.00;98.00;;;;;;5012237;28;20426;-74
2022/11/27 00:35:54;;;;;;;20.50;7.20;;;5.90;97.20;;;;;;5012258;28;20384;-73
2022/11/27 00:38:19;;;;;;;22.33;7.18;;;6.00;97.80;;;;;;5012625;28;20801;-73
2022/11/27 00:40:46;;;;;;;15.00;6.50;;;6.00;97.20;;;;;;5013510;28;20403;-72
2022/11/27 00:43:11;;;;;;;20.55;7.15;;;6.00;95.00;;;;;;5013738;28;20806;-72
2022/11/27 00:45:37;;;;;;;16.90;6.50;;;6.10;95.40;;;;;;5011803;28;20431;-73
2022/11/27 00:48:03;;;;;;;19.77;6.93;;;6.00;93.70;;;;;;5013362;28;20393;-73
2022/11/27 00:50:30;;;;;;;17.53;6.13;;;6.00;96.10;;;;;;5015731;28;20389;-73
2022/11/27 00:52:57;;;;;;;17.48;6.53;;;6.00;95.70;;;;;;5026866;28;20396;-73
2022/11/27 00:55:23;;;;;;;14.38;7.13;;;6.00;96.40;;;;;;5024539;28;20398;-72
2022/11/27 00:57:49;;;;;;;20.00;6.40;;;6.00;98.10;;;;;;5014965;28;20848;-72
2022/11/27 01:00:15;;;;;;;16.70;6.33;;;6.00;95.00;;;;;;5013895;28;20428;-75
2022/11/27 01:02:40;;;;;;;18.55;6.47;;;6.00;96.60;;;;;;5012778;28;20388;-72
2022/11/27 01:05:06;;;;;;;16.80;5.80;;;6.10;96.00;;;;;;5013691;28;20468;-73
2022/11/27 01:07:32;;;;;;;18.33;7.00;;;6.00;94.20;;;;;;5014637;28;20391;-72
2022/11/27 01:09:57;;;;;;;16.43;6.00;;;6.10;95.10;;;;;;5015131;28;20424;-74
2022/11/27 01:12:23;;;;;;;17.60;6.90;;;6.10;94.60;;;;;;5020318;28;20380;-73
2022/11/27 01:14:48;;;;;;;15.43;6.67;;;6.00;92.90;;;;;;5020153;28;20392;-73
2022/11/27 01:17:14;;;;;;;14.80;6.53;;;6.00;93.20;;;;;;5018570;28;20403;-73
2022/11/27 01:19:39;;;;;;;16.10;6.13;;;6.10;93.90;;;;;;5015855;28;20488;-72
2022/11/27 01:22:05;;;;;;;17.40;6.50;;;6.10;95.10;;;;;;5012410;28;20753;-73
2022/11/27 01:24:31;;;;;;;20.60;7.00;;;6.10;93.90;;;;;;5012629;28;20508;-73
2022/11/27 01:26:56;;;;;;;15.67;6.60;;;6.10;92.90;;;;;;5011877;28;20393;-73
2022/11/27 01:29:22;;;;;;;15.30;6.73;;;6.20;94.00;;;;;;5011687;28;20918;-72
2022/11/27 01:31:47;;;;;;;9.10;4.90;;;6.20;93.10;;;;;;5012379;28;20408;-73
2022/11/27 01:34:15;;;;;;;14.17;5.73;;;6.20;87.70;;;;;;5012072;28;20419;-74
2022/11/27 01:36:41;;;;;;;15.63;6.22;;;6.20;89.20;;;;;;5012816;28;20471;-71
2022/11/27 01:39:07;;;;;;;18.00;6.50;;;6.10;91.10;;;;;;5012891;28;20927;-74
2022/11/27 01:41:35;;;;;;;17.27;5.90;;;6.20;91.40;;;;;;5012167;28;20396;-73
2022/11/27 01:44:22;;;;;;;13.70;5.53;;;6.20;91.40;;;;;;5011832;28;20881;-72
2022/11/27 01:47:01;;;;;;;12.77;4.80;;;6.20;92.10;;;;;;5011882;28;20428;-72
2022/11/27 01:49:34;;;;;;;14.35;5.50;;;6.10;87.10;;;;;;5010388;28;20392;-72
2022/11/27 01:52:05;;;;;;;15.30;5.88;;;6.10;90.20;;;;;;5011304;28;20396;-72
2022/11/27 01:54:42;;;;;;;18.70;6.45;;;6.20;90.90;;;;;;5011347;28;20496;-72
2022/11/27 01:57:15;;;;;;;17.50;5.60;;;6.20;87.00;;;;;;5011467;28;20384;-72
2022/11/27 01:59:41;;;;;;;13.10;5.30;;;6.20;87.50;;;;;;5011518;28;20434;-73
2022/11/27 02:02:06;;;;;;;16.90;5.00;;;6.30;88.60;;;;;;5011135;28;20384;-73
2022/11/27 02:04:32;;;;;;;11.80;5.97;;;6.30;85.80;;;;;;5011649;28;20407;-73
2022/11/27 02:06:59;;;;;;;14.02;5.30;;;6.30;85.80;;;;;;5011878;28;20392;-72
2022/11/27 02:09:26;;;;;;;11.57;6.40;;;6.30;85.80;;;;;;5011970;28;20467;-75
2022/11/27 02:12:23;;;;;;;13.00;5.50;;;6.30;89.00;;;;;;5011844;28;20446;-73
2022/11/27 02:14:52;;;;;;;15.27;4.65;;;6.20;85.00;;;;;;5011561;28;20440;-73
2022/11/27 02:17:25;;;;;;;12.87;5.67;;;6.20;83.80;;;;;;5011188;28;20404;-74
2022/11/27 02:20:36;;;;;;;12.98;5.63;;;6.10;83.80;;;;;;5011325;28;20423;-73
2022/11/27 02:23:09;;;;;;;16.17;6.07;;;6.10;85.00;;;;;;5010627;28;20384;-72
2022/11/27 02:25:59;;;;;;;18.63;5.88;;;6.10;86.10;;;;;;5010870;28;20434;-73
2022/11/27 02:28:39;;;;;;;11.77;5.03;;;6.10;85.50;;;;;;5012860;28;20416;-73
2022/11/27 02:31:28;;;;;;;13.47;5.80;;;6.00;85.20;;;;;;5012811;28;20495;-73
2022/11/27 02:33:59;;;;;;;14.70;6.47;;;6.00;88.20;;;;;;5014881;28;20489;-71
2022/11/27 02:36:30;;;;;;;20.48;6.93;;;5.90;88.60;;;;;;5015029;28;20426;-73
2022/11/27 02:39:05;;;;;;;15.68;7.10;;;5.90;87.90;;;;;;5016008;28;20837;-74
2022/11/27 02:41:40;;;;;;;13.05;7.00;;;5.90;86.60;;;;;;5016459;28;20444;-73
2022/11/27 02:44:08;;;;;;;13.50;6.80;;;5.90;87.30;;;;;;5015867;28;20740;-72
2022/11/27 02:46:33;;;;;;;16.05;7.10;;;5.80;88.60;;;;;;5013232;28;20381;-74
2022/11/27 02:49:07;;;;;;;17.08;7.38;;;5.80;88.30;;;;;;5014828;28;20392;-73
2022/11/27 02:51:42;;;;;;;14.23;7.47;;;5.80;88.80;;;;;;5014571;28;20432;-71
2022/11/27 02:54:12;;;;;;;20.38;7.93;;;5.70;92.10;;;;;;5014768;28;20409;-72
2022/11/27 02:56:40;;;;;;;13.20;7.57;;;5.80;92.80;;;;;;5014895;28;20400;-73
2022/11/27 02:59:10;;;;;;;19.20;8.45;;;5.80;91.10;;;;;;5014192;28;20511;-73
2022/11/27 03:01:42;;;;;;;19.85;8.68;;;5.70;91.30;;;;;;5014306;28;20389;-73
2022/11/27 03:04:13;;;;;;;15.27;8.00;;;5.70;91.90;;;;;;5013884;28;20851;-73
2022/11/27 03:06:44;;;;;;;22.33;8.90;;;5.70;92.20;;;;;;5014055;28;20438;-73
2022/11/27 03:09:21;;;;;;;17.00;8.40;;;5.60;93.60;;;;;;5014062;28;20392;-73
2022/11/27 03:11:47;;;;;;;19.13;9.20;;;5.60;92.90;;;;;;5013714;28;20393;-71
2022/11/27 03:14:14;;;;;;;20.85;8.52;;;5.60;94.40;;;;;;5013883;28;20392;-71
2022/11/27 03:16:47;;;;;;;18.73;9.18;;;5.60;91.80;;;;;;5018055;28;20979;-73
2022/11/27 03:19:37;;;;;;;22.73;9.25;;;5.60;91.40;;;;;;5021336;28;20420;-73
2022/11/27 03:22:03;;;;;;;22.70;10.15;;;5.50;90.10;;;;;;5017699;28;20418;-73
2022/11/27 03:24:33;;;;;;;23.40;9.80;;;5.50;92.10;;;;;;5021346;28;20384;-73
2022/11/27 03:26:58;;;;;;;22.37;10.20;;;5.60;92.00;;;;;;5018327;28;20392;-72
2022/11/27 03:29:29;;;;;;;29.88;10.52;;;5.60;91.50;;;;;;5014510;28;20384;-73
2022/11/27 03:31:56;;;;;;;18.58;10.25;;;5.60;91.90;;;;;;5013725;28;20393;-73
2022/11/27 03:34:22;;;;;;;26.85;10.73;;;5.70;88.40;;;;;;5013551;28;20395;-72
2022/11/27 03:36:48;;;;;;;20.67;9.98;;;5.70;90.40;;;;;;5013499;28;20380;-74
2022/11/27 03:39:14;;;;;;;21.73;10.90;;;5.70;88.20;;;;;;5012797;28;20469;-72
2022/11/27 03:41:43;;;;;;;28.73;11.27;;;5.70;92.00;;;;;;5012299;28;20916;-73
2022/11/27 03:44:25;;;;;;;21.23;10.70;;;5.80;90.80;;;;;;5026250;28;20485;-74
2022/11/27 03:47:03;;;;;;;21.92;11.02;;;5.80;86.40;;;;;;5013524;28;20861;-71
2022/11/27 03:50:01;;;;;;;26.33;11.60;;;5.80;86.10;;;;;;5012244;28;20423;-73
2022/11/27 03:52:47;;;;;;;27.67;11.83;;;5.80;88.60;;;;;;5011430;28;20415;-71
2022/11/27 03:55:15;;;;;;;27.55;12.00;;;5.90;86.90;;;;;;5028697;28;20391;-73
2022/11/27 03:57:54;;;;;;;27.60;12.10;;;5.90;82.80;;;;;;5013207;28;20395;-71
2022/11/27 04:00:20;;;;;;;22.75;10.93;;;6.00;83.80;;;;;;5012605;28;20475;-73
2022/11/27 04:02:49;;;;;;;27.20;11.73;;;6.10;79.80;;;;;;5012526;28;20467;-73
2022/11/27 04:05:15;;;;;;;29.07;12.50;;;6.10;79.60;;;;;;5012949;28;20415;-73
2022/11/27 04:07:41;;;;;;;23.67;11.85;;;6.10;80.60;;;;;;5012814;28;20395;-72
2022/11/27 04:10:08;;;;;;;25.90;12.05;;;6.00;79.70;;;;;;5013553;28;20381;-73
2022/11/27 04:12:34;;;;;;;29.20;13.15;;;6.10;82.50;;;;;;5012849;28;20403;-73
2022/11/27 04:14:59;;;;;;;28.55;12.60;;;6.10;83.40;;;;;;5012788;28;20388;-72
2022/11/27 04:17:25;;;;;;;28.92;13.18;;;6.20;81.30;;;;;;5012992;28;20502;-74
2022/11/27 04:19:50;;;;;;;23.73;12.02;;;6.20;79.80;;;;;;5012942;28;20401;-71
2022/11/27 04:22:16;;;;;;;28.80;12.40;;;6.30;80.00;;;;;;5012604;28;20464;-72
2022/11/27 04:24:41;;;;;;;30.60;12.70;;;6.30;76.50;;;;;;5013217;28;20412;-72
2022/11/27 04:27:07;;;;;;;23.47;12.10;;;6.30;79.00;;;;;;5012155;28;20801;-74
2022/11/27 04:29:35;;;;;;;27.27;12.30;;;6.30;78.10;;;;;;5012456;28;20377;-73
2022/11/27 04:32:01;;;;;;;29.73;11.93;;;6.40;77.80;;;;;;5011430;28;20415;-74
2022/11/27 04:34:26;;;;;;;25.67;12.32;;;6.40;77.60;;;;;;5011837;28;20416;-73
2022/11/27 04:36:52;;;;;;;24.42;12.30;;;6.30;75.70;;;;;;5011527;28;20400;-72
2022/11/27 04:39:18;;;;;;;22.90;12.43;;;6.40;75.40;;;;;;5010345;28;20420;-72
2022/11/27 04:41:43;;;;;;;22.90;11.60;;;6.40;77.30;;;;;;5013760;28;20466;-73
2022/11/27 04:44:10;;;;;;;27.37;12.03;;;6.30;76.40;;;;;;5011929;28;20407;-73
2022/11/27 04:46:36;;;;;;;30.00;12.40;;;6.30;73.20;;;;;;5011601;28;20832;-72
2022/11/27 04:49:01;;;;;;;26.63;11.87;;;6.50;75.40;;;;;;5011553;28;20430;-72
2022/11/27 04:51:27;;;;;;;24.90;11.50;;;6.40;74.80;;;;;;5010894;28;20392;-72
2022/11/27 04:53:53;;;;;;;23.07;11.30;;;6.40;71.50;;;;;;5011392;28;20397;-73
2022/11/27 04:56:18;;;;;;;29.07;12.43;;;6.30;73.00;;;;;;5011326;28;20439;-73
2022/11/27 04:58:44;;;;;;;28.67;13.40;;;6.40;71.20;;;;;;5011267;28;20396;-72
2022/11/27 05:01:09;;;;;;;20.83;11.67;;;6.40;73.10;;;;;;5011148;28;20389;-73
2022/11/27 05:03:35;;;;;;;27.63;12.17;;;6.40;69.00;;;;;;5011288;28;20471;-72
2022/11/27 05:06:00;;;;;;;25.38;12.00;;;6.40;70.70;;;;;;5011221;28;20380;-74
2022/11/27 05:08:29;;;;;;;27.05;12.50;;;6.40;72.80;;;;;;5011408;28;20897;-73
2022/11/27 05:11:03;;;;;;;24.42;11.38;;;6.40;69.90;;;;;;5011499;28;20476;-73
2022/11/27 05:13:29;;;;;;;29.00;12.35;;;6.40;66.70;;;;;;5013232;28;20418;-73
2022/11/27 05:15:55;;;;;;;26.17;12.13;;;6.40;69.60;;;;;;5012806;28;20438;-74
2022/11/27 05:18:20;;;;;;;23.90;11.02;;;6.50;68.60;;;;;;5013572;28;20405;-73
2022/11/27 05:20:46;;;;;;;22.42;10.98;;;6.50;70.50;;;;;;5017095;28;20397;-73
2022/11/27 05:23:11;;;;;;;23.08;12.02;;;6.50;70.50;;;;;;5017182;28;20406;-74
2022/11/27 05:25:38;;;;;;;22.13;11.50;;;6.50;72.10;;;;;;5015470;28;20818;-74
2022/11/27 05:28:03;;;;;;;24.35;11.80;;;6.50;71.80;;;;;;5012207;28;20400;-72
2022/11/27 05:30:29;;;;;;;22.40;11.25;;;6.50;70.70;;;;;;5010835;28;20446;-73
2022/11/27 05:32:55;;;;;;;22.70;11.32;;;6.60;68.90;;;;;;5011167;28;20384;-73
2022/11/27 05:35:20;;;;;;;25.40;11.70;;;6.50;69.10;;;;;;5011065;28;20400;-72
2022/11/27 05:37:46;;;;;;;21.17;10.93;;;6.50;69.80;;;;;;5009602;28;20499;-72
2022/11/27 05:40:11;;;;;;;19.83;10.45;;;6.50;69.90;;;;;;5010695;28;20469;-73
2022/11/27 05:42:37;;;;;;;24.42;10.70;;;6.50;68.00;;;;;;5010518;28;20381;-74
2022/11/27 05:45:03;;;;;;;21.50;10.40;;;6.50;68.30;;;;;;5010563;28;20385;-73
2022/11/27 05:47:28;;;;;;;24.42;10.07;;;6.50;68.80;;;;;;5010744;28;20411;-73
2022/11/27 05:49:54;;;;;;;23.10;10.60;;;6.50;70.00;;;;;;5010691;28;20416;-72
2022/11/27 05:52:19;;;;;;;20.08;9.95;;;6.50;69.10;;;;;;5010502;28;20471;-73
2022/11/27 05:54:45;;;;;;;22.10;10.05;;;6.50;69.80;;;;;;5010699;28;20393;-73
2022/11/27 05:57:11;;;;;;;21.85;10.50;;;6.50;68.90;;;;;;5010447;28;20391;-73
2022/11/27 05:59:36;;;;;;;18.23;10.02;;;6.60;68.90;;;;;;5010619;28;20460;-73
2022/11/27 06:02:02;;;;;;;18.85;10.27;;;6.60;65.20;;;;;;5010207;28;20929;-73
2022/11/27 06:04:27;;;;;;;22.15;10.00;;;6.60;66.50;;;;;;5013419;28;20460;-72
2022/11/27 06:06:53;;;;;;;18.15;9.52;;;6.60;67.50;;;;;;5014364;28;20396;-71
2022/11/27 06:09:18;;;;;;;19.77;10.10;;;6.60;65.60;;;;;;5013110;28;20476;-73
2022/11/27 06:11:44;;;;;;;18.55;9.95;;;6.60;66.40;;;;;;5014848;28;20393;-73
2022/11/27 06:14:10;;;;;;;18.75;9.55;;;6.60;67.00;;;;;;5016171;28;20761;-72
2022/11/27 06:16:36;;;;;;;21.25;9.73;;;6.70;68.00;;;;;;5015076;28;20427;-71
2022/11/27 06:19:01;;;;;;;16.90;9.80;;;6.60;69.70;;;;;;5015578;28;20442;-73
2022/11/27 06:21:27;;;;;;;20.60;9.80;;;6.70;67.30;;;;;;5015997;28;20883;-73
2022/11/27 06:23:55;;;;;;;14.27;8.33;;;6.70;66.40;;;;;;5032637;28;20437;-72
2022/11/27 06:26:23;;;;;;;26.20;10.20;;;6.60;66.70;;;;;;5036368;28;20436;-73
2022/11/27 06:28:49;;;;;;;21.42;9.88;;;6.60;65.40;;;;;;5016706;28;20750;-73
2022/11/27 06:31:17;;;;;;;17.67;9.10;;;6.60;68.70;;;;;;5013270;28;20389;-73
2022/11/27 06:33:44;;;;;;;21.83;10.82;;;6.60;65.10;;;;;;5013963;28;20407;-71
2022/11/27 06:36:09;;;;;;;20.40;9.20;;;6.70;66.80;;;;;;5014524;28;20810;-72
2022/11/27 06:38:36;;;;;;;20.23;10.30;;;6.70;64.90;;;;;;5013716;28;20511;-74
2022/11/27 06:41:04;;;;;;;17.83;9.52;;;6.60;68.00;;;;;;5028227;28;20385;-73
2022/11/27 06:43:30;;;;;;;18.90;8.65;;;6.60;66.60;;;;;;5012475;28;20482;-74
2022/11/27 06:45:57;;;;;;;19.90;9.50;;;6.70;67.10;;;;;;5013801;28;20414;-73
2022/11/27 06:48:23;;;;;;;21.33;9.73;;;6.80;66.90;;;;;;5013838;28;20464;-74
2022/11/27 06:50:48;;;;;;;20.10;10.02;;;6.70;66.40;;;;;;5014045;28;20449;-73
2022/11/27 06:53:14;;;;;;;19.23;9.30;;;6.60;68.20;;;;;;5014107;28;20397;-74
2022/11/27 06:55:39;;;;;;;22.02;10.10;;;6.60;68.70;;;;;;5014307;28;20870;-73
2022/11/27 06:58:05;;;;;;;18.60;9.52;;;6.60;69.30;;;;;;5012947;28;20401;-71
2022/11/27 07:00:30;;;;;;;18.83;9.77;;;6.60;68.20;;;;;;5013425;28;20635;-72
2022/11/27 07:02:56;;;;;;;22.23;9.27;;;6.60;71.10;;;;;;5012857;28;20404;-73
2022/11/27 07:05:23;;;;;;;25.63;10.02;;;6.60;68.80;;;;;;5013340;28;20391;-74
2022/11/27 07:07:49;;;;;;;20.42;10.07;;;6.60;72.50;;;;;;5013750;28;20439;-73
2022/11/27 07:10:14;;;;;;;18.77;10.17;;;6.70;71.40;;;;;;5013312;28;20401;-72
2022/11/27 07:12:40;;;;;;;19.83;10.10;;;6.70;71.50;;;;;;5012918;28;20389;-73
2022/11/27 07:15:07;;;;;;;17.20;9.30;;;6.70;68.60;;;;;;5012696;28;20878;-74
2022/11/27 07:17:32;;;;;;;15.95;8.63;;;6.80;69.70;;;;;;5013099;28;20486;-71
2022/11/27 07:19:58;;;;;;;19.48;8.98;;;6.80;68.30;;;;;;5012775;28;20471;-71
2022/11/27 07:22:23;;;;;;;18.27;8.75;;;6.80;67.50;;;;;;5012816;28;20387;-73
2022/11/27 07:24:49;;;;;;;17.75;9.38;;;6.90;66.30;;;;;;5013787;28;20427;-72
2022/11/27 07:27:14;;;;;;;18.60;9.23;;;7.00;68.30;;;;;;5015224;28;20413;-73
2022/11/27 07:29:40;;;;;;;16.98;9.20;;;7.00;66.00;;;;;;5021749;28;20397;-73
2022/11/27 07:32:05;;;;;;;15.77;9.27;;;7.10;66.00;;;;;;5023763;28;20389;-72
2022/11/27 07:34:31;;;;;;;21.37;9.63;;;7.10;65.40;;;;;;5021109;28;20393;-74
2022/11/27 07:36:56;;;;;;;16.60;8.87;;;7.10;67.20;;;;;;5017090;28;20399;-73
2022/11/27 07:39:22;;;;;;;18.70;9.60;;;7.10;65.90;;;;;;5018044;28;20415;-74
2022/11/27 07:41:47;;;;;;;19.03;9.67;;;7.20;67.10;;;;;;5017695;28;20397;-73
2022/11/27 07:44:13;;;;;;;19.27;9.40;;;7.20;64.80;;;;;;5018009;28;20387;-73
2022/11/27 07:46:38;;;;;;;19.92;8.90;;;7.30;65.50;;;;;;5017333;28;20825;-72
2022/11/27 07:49:04;;;;;;;20.35;8.93;;;7.30;66.10;;;;;;5013653;28;20395;-74
2022/11/27 07:51:29;;;;;;;18.30;8.60;;;7.40;65.20;;;;;;5013336;28;20944;-72
2022/11/27 07:53:56;;;;;;;16.13;8.82;;;7.50;62.50;;;;;;5012956;28;20389;-73
2022/11/27 07:56:21;;;;;;;14.13;8.52;;;7.50;64.70;;;;;;5012343;28;20447;-74
2022/11/27 07:58:47;;;;;;;18.20;9.20;;;7.50;62.60;;;;;;5012552;28;20507;-72
2022/11/27 08:01:15;;;;;;;16.17;8.25;;;7.50;62.00;;;;;;5012162;28;20450;-74
2022/11/27 08:03:44;;;;;;;17.63;8.00;;;7.50;62.50;;;;;;5012837;28;20393;-73
2022/11/27 08:06:18;;;;;;;14.70;7.95;;;7.60;60.80;;;;;;5012784;28;20488;-72
2022/11/27 08:08:44;;;;;;;13.13;7.90;;;7.60;60.90;;;;;;5012790;28;20908;-73
2022/11/27 08:11:22;;;;;;;19.88;9.68;;;7.60;60.40;;;;;;5011322;28;20393;-71
2022/11/27 08:13:48;;;;;;;13.80;8.15;;;7.70;63.80;;;;;;5012339;28;20381;-73
2022/11/27 08:16:14;;;;;;;15.43;7.68;;;7.90;60.10;;;;;;5012309;28;20381;-73
2022/11/27 08:18:40;;;;;;;14.87;7.53;;;8.00;59.20;;;;;;5012537;28;20436;-73
2022/11/27 08:21:06;;;;;;;12.98;8.05;;;8.10;58.30;;;;;;5011016;28;20816;-73
2022/11/27 08:23:32;;;;;;;15.98;7.70;;;8.10;58.10;;;;;;5011796;28;20468;-74
2022/11/27 08:25:57;;;;;;;16.52;7.68;;;8.30;55.90;;;;;;5011251;28;20387;-73
2022/11/27 08:28:23;;;;;;;15.23;8.13;;;8.40;54.80;;;;;;5010530;28;20472;-74
2022/11/27 08:30:57;;;;;;;9.93;6.85;;;8.60;55.10;;;;;;5011447;28;20388;-73
2022/11/27 08:33:22;;;;;;;15.63;7.30;;;8.60;52.40;;;;;;5011479;28;20735;-73
2022/11/27 08:35:48;;;;;;;13.00;7.57;;;8.70;54.20;;;;;;5011669;28;20443;-72
2022/11/27 08:38:14;;;;;;;14.10;7.68;;;8.70;53.20;;;;;;5012411;28;20454;-72
2022/11/27 08:40:39;;;;;;;14.80;7.07;;;8.70;52.60;;;;;;5011533;28;20389;-73
2022/11/27 08:43:05;;;;;;;16.53;8.00;;;8.60;50.90;;;;;;5009622;28;20392;-72
2022/11/27 08:45:31;;;;;;;13.47;6.80;;;8.60;53.50;;;;;;5011365;28;20377;-73
2022/11/27 08:47:57;;;;;;;17.17;7.50;;;8.60;52.80;;;;;;5011310;28;20443;-71
2022/11/27 08:50:23;;;;;;;12.32;7.10;;;8.70;51.60;;;;;;5026743;23;20392;-74
2022/11/27 08:52:49;;;;;;;15.57;7.72;;;8.60;52.20;;;;;;5014620;28;20385;-75
2022/11/27 08:55:14;;;;;;;12.17;6.70;;;8.70;53.20;;;;;;5019790;28;20385;-74
2022/11/27 08:57:40;;;;;;;14.10;6.70;;;8.80;51.90;;;;;;5027267;28;20411;-75
2022/11/27 09:00:06;;;;;;;17.60;7.80;;;8.90;49.30;;;;;;5025344;28;20400;-75
2022/11/27 09:02:33;;;;;;;14.07;7.68;;;8.90;50.00;;;;;;5013298;28;20900;-75
2022/11/27 09:04:58;;;;;;;12.70;7.40;;;8.90;49.10;;;;;;5012808;28;20419;-75
2022/11/27 09:07:24;;;;;;;10.70;6.60;;;8.90;48.90;;;;;;5013335;28;20377;-75
2022/11/27 09:09:49;;;;;;;13.50;7.40;;;9.00;49.90;;;;;;5013851;28;20447;-75
2022/11/27 09:12:15;;;;;;;13.03;6.57;;;8.90;50.00;;;;;;5012664;28;20426;-76
2022/11/27 09:14:40;;;;;;;9.87;6.50;;;9.00;49.10;;;;;;5014698;28;20393;-76
2022/11/27 09:17:06;;;;;;;12.50;6.23;;;9.00;49.30;;;;;;5013568;28;20408;-75
2022/11/27 09:19:31;;;;;;;15.33;7.20;;;9.10;47.50;;;;;;5013465;28;20603;-76
2022/11/27 09:21:58;;;;;;;13.90;7.20;;;9.10;48.80;;;;;;5013107;28;20522;-75
2022/11/27 09:24:24;;;;;;;14.07;7.30;;;9.20;48.40;;;;;;5013435;28;20391;-74
2022/11/27 09:26:49;;;;;;;13.00;6.38;;;9.30;48.00;;;;;;5012367;28;20397;-75
2022/11/27 09:29:15;;;;;;;11.38;6.75;;;9.40;45.80;;;;;;5012560;28;20400;-74
2022/11/27 09:31:40;;;;;;;10.57;6.72;;;9.50;45.70;;;;;;5013336;28;20381;-75
2022/11/27 09:34:06;;;;;;;11.93;6.20;;;9.50;46.20;;;;;;5014372;28;20393;-75
2022/11/27 09:36:32;;;;;;;11.53;6.87;;;9.50;44.30;;;;;;5014483;28;20392;-76
2022/11/27 09:38:58;;;;;;;10.30;6.10;;;9.60;44.10;;;;;;5021113;28;20404;-76
2022/11/27 09:41:50;;;;;;;11.88;6.10;;;9.60;44.70;;;;;;5022482;28;20793;-75
2022/11/27 09:44:47;;;;;;;15.87;6.10;;;9.60;43.30;;;;;;5020799;28;20758;-75
2022/11/27 09:47:33;;;;;;;15.40;6.77;;;9.70;43.80;;;;;;5018240;28;20396;-75
2022/11/27 09:50:24;;;;;;;12.48;6.30;;;9.80;41.60;;;;;;5021700;28;20743;-76
2022/11/27 09:53:04;;;;;;;12.05;6.30;;;9.80;41.60;;;;;;5018768;28;20396;-74
2022/11/27 09:55:37;;;;;;;14.27;6.38;;;9.90;42.30;;;;;;5016717;28;20401;-75
2022/11/27 09:58:36;;;;;;;10.80;6.17;;;9.90;41.30;;;;;;5016686;28;20403;-76
2022/11/27 10:01:15;;;;;;;13.88;6.13;;;9.90;41.30;;;;;;5015843;28;20424;-75
2022/11/27 10:03:42;;;;;;;12.10;6.10;;;9.90;40.10;;;;;;5016932;28;20389;-74
2022/11/27 10:06:45;;;;;;;11.07;6.40;;;9.90;41.50;;;;;;5017288;28;20396;-75
2022/11/27 10:09:45;;;;;;;15.10;6.75;;;10.00;38.60;;;;;;5017037;28;20377;-75
2022/11/27 10:12:53;;;;;;;15.45;6.90;;;10.00;39.20;;;;;;5016259;28;20908;-77
2022/11/27 10:15:21;;;;;;;10.90;6.50;;;10.00;39.80;;;;;;5016964;28;20806;-74
2022/11/27 10:18:00;;;;;;;12.35;6.60;;;10.00;38.80;;;;;;5017511;28;20816;-75
2022/11/27 10:20:45;;;;;;;16.08;7.63;;;10.00;39.10;;;;;;5016326;28;20391;-75
2022/11/27 10:23:37;;;;;;;14.63;7.18;;;10.10;38.40;;;;;;5018029;28;20943;-75
2022/11/27 10:26:10;;;;;;;14.55;6.60;;;10.20;38.30;;;;;;5018725;28;20408;-74
2022/11/27 10:29:13;;;;;;;15.20;7.22;;;10.20;37.70;;;;;;5018303;28;20470;-74
2022/11/27 10:31:48;;;;;;;16.00;7.68;;;10.20;37.80;;;;;;5016564;28;20830;-76
2022/11/27 10:34:44;;;;;;;12.95;6.88;;;10.30;38.70;;;;;;5015437;28;20400;-76
2022/11/27 10:37:19;;;;;;;11.38;7.00;;;10.50;38.50;;;;;;5017713;28;20392;-76
2022/11/27 10:40:07;;;;;;;11.95;7.13;;;10.50;38.00;;;;;;5015256;28;20450;-75
2022/11/27 10:42:39;;;;;;;13.73;7.85;;;10.50;36.80;;;;;;5015094;28;20391;-76
2022/11/27 10:45:06;;;;;;;15.05;7.60;;;10.50;37.80;;;;;;5016865;28;20377;-75
2022/11/27 10:47:32;;;;;;;15.55;7.50;;;10.60;38.70;;;;;;5016324;28;20873;-75
2022/11/27 10:49:58;;;;;;;15.30;7.95;;;10.60;38.10;;;;;;5016782;28;20399;-74
2022/11/27 10:52:23;;;;;;;14.85;7.80;;;10.60;38.00;;;;;;5016032;28;20397;-76
2022/11/27 10:54:57;;;;;;;16.77;7.10;;;10.50;36.90;;;;;;5016546;28;20393;-75
2022/11/27 10:57:31;;;;;;;17.88;7.50;;;10.40;37.20;;;;;;5016611;28;20381;-75
2022/11/27 11:00:08;;;;;;;14.13;7.30;;;10.40;39.20;;;;;;5016764;28;20396;-75
2022/11/27 11:02:37;;;;;;;16.30;7.25;;;10.30;37.80;;;;;;5016247;28;20388;-74
2022/11/27 11:05:20;;;;;;;14.90;8.00;;;10.30;38.80;;;;;;5016981;28;20983;-75
2022/11/27 11:08:16;;;;;;;17.17;7.20;;;10.30;38.70;;;;;;5018793;28;20409;-75
2022/11/27 11:11:03;;;;;;;11.98;7.65;;;10.30;40.30;;;;;;5023850;28;20397;-76
2022/11/27 11:13:31;;;;;;;12.20;7.40;;;10.30;40.50;;;;;;5025850;28;20500;-75
2022/11/27 11:15:58;;;;;;;16.20;8.10;;;10.30;40.60;;;;;;5027519;28;20399;-76
2022/11/27 11:18:33;;;;;;;13.07;7.47;;;10.20;40.50;;;;;;5029015;28;20405;-75
2022/11/27 11:21:01;;;;;;;15.80;7.97;;;10.20;40.00;;;;;;5030683;28;20453;-74
2022/11/27 11:23:39;;;;;;;14.13;7.45;;;10.30;43.70;;;;;;5026346;28;20388;-75
2022/11/27 11:26:27;;;;;;;8.60;6.30;;;10.40;43.00;;;;;;5031952;28;20384;-76
2022/11/27 11:28:56;;;;;;;11.13;6.72;;;10.40;40.60;;;;;;5031495;28;20392;-75
2022/11/27 11:31:32;;;;;;;11.30;6.95;;;10.40;42.50;;;;;;5021546;28;20385;-76
2022/11/27 11:34:01;;;;;;;14.05;7.40;;;10.30;44.80;;;;;;5016448;28;20957;-74
2022/11/27 11:36:27;;;;;;;13.55;7.57;;;10.20;44.20;;;;;;5019460;28;20400;-74
2022/11/27 11:38:53;;;;;;;16.80;7.77;;;10.20;46.60;;;;;;5028354;28;20471;-74
2022/11/27 11:41:19;;;;;;;15.70;7.20;;;10.20;45.00;;;;;;5027685;28;20400;-76
2022/11/27 11:43:55;;;;;;;21.20;8.00;;;10.20;42.70;;;;;;5015816;28;20389;-75
2022/11/27 11:46:28;;;;;;;14.98;7.70;;;10.20;43.50;;;;;;5014421;28;20392;-74
2022/11/27 11:49:17;;;;;;;9.02;6.60;;;10.20;40.80;;;;;;5014461;28;20400;-74
2022/11/27 11:52:20;;;;;;;15.85;7.47;;;10.20;41.40;;;;;;5014839;28;20472;-75
2022/11/27 11:55:13;;;;;;;12.88;7.53;;;10.40;43.00;;;;;;5017522;28;20480;-75
2022/11/27 11:57:50;;;;;;;10.40;6.80;;;10.50;41.20;;;;;;5015913;28;20407;-74
2022/11/27 12:00:21;;;;;;;12.90;6.55;;;10.50;40.10;;;;;;5013560;28;20470;-75
2022/11/27 12:03:05;;;;;;;12.02;7.18;;;10.60;37.50;;;;;;5013854;28;20484;-74
2022/11/27 12:05:55;;;;;;;13.20;6.95;;;10.70;39.00;;;;;;5014987;28;20439;-74
2022/11/27 12:08:33;;;;;;;13.05;6.72;;;10.90;38.40;;;;;;5014297;28;20385;-77
2022/11/27 12:11:10;;;;;;;11.27;6.85;;;10.90;37.70;;;;;;5017231;28;20387;-75
2022/11/27 12:14:04;;;;;;;14.45;7.70;;;10.90;37.20;;;;;;5016342;28;20746;-75
2022/11/27 12:16:56;;;;;;;14.63;6.95;;;10.90;38.50;;;;;;5017314;28;20388;-75
2022/11/27 12:19:34;;;;;;;12.52;6.85;;;10.80;38.00;;;;;;5016931;28;20873;-77
2022/11/27 12:22:36;;;;;;;13.15;7.22;;;10.90;37.90;;;;;;5016358;28;20397;-76
2022/11/27 12:25:40;;;;;;;12.63;6.63;;;10.90;37.40;;;;;;5018737;28;20381;-76
2022/11/27 12:28:37;;;;;;;12.07;6.50;;;10.90;36.20;;;;;;4977355;28;20435;-77
2022/11/27 12:31:19;;;;;;;13.43;7.15;;;10.90;35.90;;;;;;5019047;28;20385;-76
2022/11/27 12:34:05;;;;;;;10.27;6.32;;;10.90;35.80;;;;;;5021303;28;20496;-76
2022/11/27 12:36:40;;;;;;;10.88;6.07;;;11.00;35.80;;;;;;5022198;28;20383;-77
2022/11/27 12:39:24;;;;;;;13.02;6.07;;;11.10;35.40;;;;;;5020468;28;20436;-75
2022/11/27 12:41:56;;;;;;;11.95;6.60;;;11.10;33.70;;;;;;5027755;28;20393;-77
2022/11/27 12:44:36;;;;;;;9.57;6.10;;;11.20;33.40;;;;;;5023859;28;20491;-78
2022/11/27 12:47:09;;;;;;;10.30;6.05;;;11.30;33.10;;;;;;5014739;28;20381;-74
2022/11/27 12:49:46;;;;;;;8.88;5.60;;;11.30;33.30;;;;;;5014061;28;20873;-76
2022/11/27 12:52:22;;;;;;;12.20;6.47;;;11.30;33.10;;;;;;5016161;28;20869;-77
2022/11/27 12:55:05;;;;;;;12.88;6.57;;;11.30;33.20;;;;;;5022606;28;20419;-76
2022/11/27 12:57:51;;;;;;;11.45;6.07;;;11.30;32.50;;;;;;5017070;28;20396;-75
2022/11/27 13:00:20;;;;;;;10.60;5.80;;;11.20;32.40;;;;;;5014621;28;20475;-76
2022/11/27 13:03:12;;;;;;;13.40;6.07;;;11.30;32.50;;;;;;5013551;28;20395;-74